createdAt,value
2022-09-17T00:01:29.386Z,0.20
2022-09-17T00:04:02.131Z,0.52
2022-09-17T00:06:28.917Z,0.57
2022-09-17T00:08:55.726Z,0.35
2022-09-17T00:11:29.855Z,0.43
2022-09-17T00:13:59.613Z,0.20
2022-09-17T00:16:29.337Z,0.47
2022-09-17T00:18:56.409Z,0.47
2022-09-17T00:21:23.925Z,0.70
2022-09-17T00:23:55.123Z,0.20
2022-09-17T00:26:22.098Z,0.55
2022-09-17T00:28:53.664Z,0.52
2022-09-17T00:31:22.357Z,0.38
2022-09-17T00:33:49.582Z,0.30
2022-09-17T00:36:16.769Z,0.50
2022-09-17T00:38:44.186Z,0.20
2022-09-17T00:41:10.945Z,0.20
2022-09-17T00:43:43.844Z,0.50
2022-09-17T00:46:21.788Z,0.45
2022-09-17T00:48:49.148Z,0.20
2022-09-17T00:51:20.048Z,0.35
2022-09-17T00:53:47.507Z,0.47
2022-09-17T00:56:23.682Z,0.40
2022-09-17T00:58:52.724Z,0.10
2022-09-17T01:01:19.727Z,0.20
2022-09-17T01:03:46.583Z,0.10
2022-09-17T01:06:31.160Z,0.10
2022-09-17T01:09:16.168Z,0.15
2022-09-17T01:12:12.417Z,0.38
2022-09-17T01:15:04.303Z,0.20
2022-09-17T01:17:36.067Z,0.25
2022-09-17T01:20:38.148Z,0.55
2022-09-17T01:23:39.191Z,0.40
2022-09-17T01:26:56.394Z,0.10
2022-09-17T01:29:55.552Z,0.13
2022-09-17T01:32:30.271Z,0.47
2022-09-17T01:35:23.104Z,0.22
2022-09-17T01:38:08.788Z,0.30
2022-09-17T01:40:45.962Z,0.22
2022-09-17T01:43:28.978Z,0.20
2022-09-17T01:46:01.527Z,0.43
2022-09-17T01:48:35.356Z,0.32
2022-09-17T01:51:22.117Z,0.10
2022-09-17T01:54:00.542Z,0.15
2022-09-17T01:56:33.823Z,0.30
2022-09-17T01:59:24.194Z,0.60
2022-09-17T02:01:56.727Z,0.35
2022-09-17T02:04:28.502Z,0.15
2022-09-17T02:07:03.759Z,0.10
2022-09-17T02:09:41.704Z,0.50
2022-09-17T02:19:02.689Z,0.38
2022-09-17T02:21:40.626Z,0.10
2022-09-17T02:24:17.836Z,0.30
2022-09-17T02:27:03.836Z,0.20
2022-09-17T02:32:16.886Z,0.20
2022-09-17T02:34:43.593Z,0.10
2022-09-17T02:37:11.165Z,0.20
2022-09-17T02:39:38.034Z,0.20
2022-09-17T02:42:39.417Z,0.38
2022-09-17T02:45:24.606Z,0.20
2022-09-17T02:48:28.673Z,0.10
2022-09-17T02:51:25.004Z,0.10
2022-09-17T02:54:10.204Z,0.17
2022-09-17T02:56:54.971Z,0.20
2022-09-17T02:59:31.807Z,0.20
2022-09-17T03:02:07.550Z,0.20
2022-09-17T03:04:37.020Z,0.20
2022-09-17T03:07:09.291Z,0.10
2022-09-17T03:09:36.374Z,0.28
2022-09-17T03:12:03.664Z,0.30
2022-09-17T03:14:30.357Z,0.28
2022-09-17T03:16:57.507Z,0.20
2022-09-17T03:19:24.366Z,0.10
2022-09-17T03:21:51.014Z,0.15
2022-09-17T03:24:17.744Z,0.20
2022-09-17T03:26:44.682Z,0.15
2022-09-17T03:29:11.435Z,0.10
2022-09-17T03:31:38.156Z,0.20
2022-09-17T03:34:05.208Z,0.10
2022-09-17T03:36:31.909Z,0.38
2022-09-17T03:38:59.089Z,0.10
2022-09-17T03:41:26.207Z,0.20
2022-09-17T03:43:53.351Z,0.10
2022-09-17T03:46:20.724Z,0.20
2022-09-17T03:48:47.536Z,0.30
2022-09-17T03:51:14.291Z,0.40
2022-09-17T03:53:41.041Z,0.10
2022-09-17T03:56:08.420Z,0.10
2022-09-17T03:58:35.838Z,0.15
2022-09-17T04:01:04.128Z,0.50
2022-09-17T04:03:31.360Z,0.30
2022-09-17T04:05:58.172Z,0.30
2022-09-17T04:08:25.027Z,0.20
2022-09-17T04:10:51.941Z,0.20
2022-09-17T04:13:19.682Z,0.25
2022-09-17T04:15:47.101Z,0.30
2022-09-17T04:18:14.511Z,0.40
2022-09-17T04:20:41.421Z,0.40
2022-09-17T04:23:11.326Z,0.30
2022-09-17T04:25:38.446Z,0.10
2022-09-17T04:28:05.185Z,0.32
2022-09-17T04:30:32.147Z,0.30
2022-09-17T04:32:58.992Z,0.98
2022-09-17T04:35:25.866Z,0.30
2022-09-17T04:37:57.133Z,0.50
2022-09-17T04:40:25.555Z,0.32
2022-09-17T04:42:56.631Z,1.20
2022-09-17T04:45:23.746Z,0.40
2022-09-17T04:47:53.297Z,0.50
2022-09-17T04:50:20.883Z,0.55
2022-09-17T04:52:49.815Z,1.33
2022-09-17T04:55:17.524Z,0.63
2022-09-17T04:57:48.320Z,1.45
2022-09-17T05:00:17.620Z,0.73
2022-09-17T05:02:49.676Z,0.30
2022-09-17T05:05:17.279Z,0.52
2022-09-17T05:07:44.471Z,0.65
2022-09-17T05:10:12.742Z,0.47
2022-09-17T05:12:39.560Z,0.60
2022-09-17T05:15:07.367Z,0.88
2022-09-17T05:17:34.006Z,0.57
2022-09-17T05:20:00.797Z,0.75
2022-09-17T05:22:27.488Z,0.75
2022-09-17T05:24:54.364Z,0.80
2022-09-17T05:27:20.987Z,1.17
2022-09-17T05:29:47.661Z,0.63
2022-09-17T05:32:14.366Z,0.88
2022-09-17T05:34:41.460Z,0.50
2022-09-17T05:37:11.244Z,1.00
2022-09-17T05:39:38.004Z,0.65
2022-09-17T05:42:04.860Z,0.55
2022-09-17T05:44:31.827Z,1.45
2022-09-17T05:46:58.887Z,0.45
2022-09-17T05:49:25.671Z,1.30
2022-09-17T05:51:52.585Z,1.38
2022-09-17T05:54:19.282Z,0.70
2022-09-17T05:56:45.979Z,1.23
2022-09-17T05:59:12.837Z,0.95
2022-09-17T06:01:39.648Z,1.08
2022-09-17T06:04:06.526Z,0.80
2022-09-17T06:06:33.204Z,1.05
2022-09-17T06:09:00.514Z,1.10
2022-09-17T06:11:27.176Z,1.00
2022-09-17T06:13:55.024Z,1.40
2022-09-17T06:16:23.350Z,1.20
2022-09-17T06:18:50.260Z,1.40
2022-09-17T06:21:17.707Z,0.85
2022-09-17T06:23:44.516Z,1.05
2022-09-17T06:26:12.595Z,0.88
2022-09-17T06:28:41.729Z,1.67
2022-09-17T06:31:10.257Z,1.10
2022-09-17T06:33:37.122Z,0.93
2022-09-17T06:36:12.391Z,0.93
2022-09-17T06:38:40.183Z,0.73
2022-09-17T06:41:07.036Z,1.00
2022-09-17T06:43:34.034Z,0.77
2022-09-17T06:46:03.299Z,1.52
2022-09-17T06:48:30.910Z,1.10
2022-09-17T06:51:03.907Z,1.45
2022-09-17T06:53:31.769Z,1.38
2022-09-17T06:56:05.976Z,1.08
2022-09-17T06:58:33.837Z,0.90
2022-09-17T07:01:01.594Z,1.10
2022-09-17T07:03:30.016Z,1.35
2022-09-17T07:05:57.646Z,0.88
2022-09-17T07:08:24.636Z,0.90
2022-09-17T07:10:51.704Z,1.00
2022-09-17T07:13:18.400Z,1.17
2022-09-17T07:15:53.112Z,1.75
2022-09-17T07:18:19.838Z,1.20
2022-09-17T07:20:56.120Z,1.42
2022-09-17T07:23:24.617Z,0.90
2022-09-17T07:25:55.812Z,1.20
2022-09-17T07:28:23.162Z,1.55
2022-09-17T07:30:51.379Z,0.98
2022-09-17T07:33:23.283Z,0.98
2022-09-17T07:36:01.533Z,0.77
2022-09-17T07:38:30.006Z,1.40
2022-09-17T07:41:01.870Z,1.00
2022-09-17T07:43:31.396Z,0.88
2022-09-17T07:45:59.306Z,1.38
2022-09-17T07:48:26.770Z,1.40
2022-09-17T07:50:53.467Z,1.10
2022-09-17T07:53:20.429Z,1.10
2022-09-17T07:56:00.670Z,1.00
2022-09-17T07:58:33.594Z,2.50
2022-09-17T08:01:05.330Z,1.30
2022-09-17T08:03:32.351Z,1.13
2022-09-17T08:06:17.573Z,1.02
2022-09-17T08:08:44.350Z,1.10
2022-09-17T08:11:13.373Z,1.10
2022-09-17T08:13:40.193Z,1.13
2022-09-17T08:16:10.214Z,1.33
2022-09-17T08:18:36.955Z,1.10
2022-09-17T08:21:06.175Z,1.00
2022-09-17T08:23:36.884Z,1.00
2022-09-17T08:26:06.031Z,1.42
2022-09-17T08:28:32.918Z,1.27
2022-09-17T08:31:08.805Z,0.60
2022-09-17T08:33:38.426Z,1.20
2022-09-17T08:36:07.257Z,1.48
2022-09-17T08:38:38.358Z,1.33
2022-09-17T08:41:14.644Z,1.27
2022-09-17T08:44:18.984Z,1.65
2022-09-17T08:46:52.203Z,1.40
2022-09-17T08:49:30.666Z,1.00
2022-09-17T08:52:16.028Z,1.42
2022-09-17T08:54:54.200Z,1.08
2022-09-17T08:57:38.108Z,1.30
2022-09-17T09:00:14.653Z,1.08
2022-09-17T09:03:13.742Z,1.02
2022-09-17T09:05:46.593Z,1.52
2022-09-17T09:08:31.671Z,0.90
2022-09-17T09:11:01.510Z,1.17
2022-09-17T09:13:37.103Z,1.05
2022-09-17T09:16:16.102Z,1.05
2022-09-17T09:18:43.466Z,1.30
2022-09-17T09:21:14.286Z,1.30
2022-09-17T09:24:13.411Z,1.17
2022-09-17T09:26:57.821Z,0.85
2022-09-17T09:29:45.039Z,1.20
2022-09-17T09:32:41.038Z,1.50
2022-09-17T09:35:27.551Z,1.40
2022-09-17T09:37:57.711Z,2.00
2022-09-17T09:40:41.577Z,0.95
2022-09-17T09:43:25.431Z,1.67
2022-09-17T09:46:16.798Z,1.33
2022-09-17T09:49:07.153Z,1.10
2022-09-17T09:51:45.993Z,1.55
2022-09-17T09:54:43.025Z,0.93
2022-09-17T09:57:20.270Z,1.35
2022-09-17T09:59:47.166Z,0.90
2022-09-17T10:02:14.727Z,1.40
2022-09-17T10:04:41.513Z,1.27
2022-09-17T10:07:10.754Z,1.33
2022-09-17T10:09:44.978Z,0.93
2022-09-17T10:12:11.704Z,1.13
2022-09-17T10:14:40.511Z,0.88
2022-09-17T10:17:14.421Z,1.15
2022-09-17T10:22:34.702Z,1.13
2022-09-17T10:25:03.905Z,1.05
2022-09-17T10:27:30.874Z,1.10
2022-09-17T10:30:09.021Z,0.80
2022-09-17T10:32:35.808Z,1.00
2022-09-17T10:35:15.805Z,1.15
2022-09-17T10:37:50.815Z,1.67
2022-09-17T10:40:20.617Z,0.80
2022-09-17T10:43:11.366Z,0.70
2022-09-17T10:45:42.159Z,0.82
2022-09-17T10:48:17.501Z,0.70
2022-09-17T10:50:52.755Z,0.82
2022-09-17T10:53:23.246Z,0.93
2022-09-17T10:56:12.220Z,1.23
2022-09-17T10:59:05.225Z,1.38
2022-09-17T11:01:58.401Z,1.55
2022-09-17T11:04:54.891Z,1.42
2022-09-17T11:07:40.478Z,1.27
2022-09-17T11:10:21.395Z,0.82
2022-09-17T11:13:04.956Z,1.02
2022-09-17T11:15:43.819Z,1.13
2022-09-17T11:18:38.892Z,1.08
2022-09-17T11:21:29.019Z,0.95
2022-09-17T11:24:07.696Z,1.30
2022-09-17T11:26:57.136Z,1.10
2022-09-17T11:29:26.596Z,0.75
2022-09-17T11:32:09.765Z,0.50
2022-09-17T11:34:42.636Z,0.40
2022-09-17T11:37:43.494Z,0.50
2022-09-17T11:40:20.115Z,0.68
2022-09-17T11:42:58.198Z,0.80
2022-09-17T11:45:31.852Z,0.70
2022-09-17T11:48:06.510Z,0.68
2022-09-17T11:50:53.187Z,0.85
2022-09-17T11:53:35.862Z,1.00
2022-09-17T11:56:16.132Z,0.75
2022-09-17T11:59:10.632Z,1.13
2022-09-17T12:01:52.917Z,0.60
2022-09-17T12:04:38.146Z,0.80
2022-09-17T12:07:21.911Z,0.70
2022-09-17T12:10:15.307Z,0.65
2022-09-17T12:12:50.530Z,1.07
2022-09-17T12:15:24.730Z,1.08
2022-09-17T12:18:37.915Z,1.10
2022-09-17T12:21:08.690Z,0.70
2022-09-17T12:23:55.669Z,0.80
2022-09-17T12:26:31.208Z,0.77
2022-09-17T12:29:17.088Z,0.80
2022-09-17T12:31:51.591Z,0.95
2022-09-17T12:34:41.607Z,0.68
2022-09-17T12:37:10.693Z,0.70
2022-09-17T12:39:54.091Z,1.63
2022-09-17T12:42:34.747Z,0.90
2022-09-17T12:45:39.603Z,0.85
2022-09-17T12:48:30.623Z,0.95
2022-09-17T12:51:10.474Z,1.20
2022-09-17T12:53:43.977Z,0.77
2022-09-17T12:56:17.580Z,0.75
2022-09-17T12:59:08.644Z,0.52
2022-09-17T13:01:57.395Z,0.60
2022-09-17T13:05:09.059Z,0.85
2022-09-17T13:08:13.298Z,0.82
2022-09-17T13:11:10.978Z,0.93
2022-09-17T13:14:05.090Z,0.60
2022-09-17T13:16:46.550Z,1.10
2022-09-17T13:19:52.819Z,0.80
2022-09-17T13:22:21.603Z,0.90
2022-09-17T13:25:06.332Z,0.88
2022-09-17T13:27:35.134Z,0.88
2022-09-17T13:30:03.152Z,0.95
2022-09-17T13:32:32.904Z,1.08
2022-09-17T13:35:11.405Z,0.93
2022-09-17T13:37:40.431Z,0.77
2022-09-17T13:40:22.706Z,0.82
2022-09-17T13:42:55.383Z,0.93
2022-09-17T13:45:23.653Z,0.55
2022-09-17T13:47:57.990Z,0.50
2022-09-17T13:50:36.325Z,0.80
2022-09-17T13:53:15.003Z,0.60
2022-09-17T13:55:50.649Z,0.52
2022-09-17T13:58:23.047Z,0.90
2022-09-17T14:01:07.916Z,0.60
2022-09-17T14:03:42.004Z,0.50
2022-09-17T14:06:09.073Z,0.70
2022-09-17T14:08:45.849Z,0.77
2022-09-17T14:11:37.207Z,0.55
2022-09-17T14:14:08.893Z,0.38
2022-09-17T14:16:46.822Z,0.50
2022-09-17T14:19:16.776Z,0.60
2022-09-17T14:22:00.564Z,0.73
2022-09-17T14:24:36.608Z,0.40
2022-09-17T14:27:15.468Z,0.70
2022-09-17T14:30:01.196Z,0.60
2022-09-17T14:33:07.527Z,0.52
2022-09-17T14:35:39.833Z,1.00
2022-09-17T14:38:28.222Z,1.02
2022-09-17T14:41:16.941Z,0.77
2022-09-17T14:44:05.787Z,0.65
2022-09-17T14:46:43.363Z,0.80
2022-09-17T14:49:24.726Z,0.30
2022-09-17T14:51:53.026Z,0.35
2022-09-17T14:54:26.034Z,0.63
2022-09-17T14:57:20.701Z,0.50
2022-09-17T14:59:51.377Z,0.43
2022-09-17T15:02:41.901Z,0.65
2022-09-17T15:05:21.320Z,0.57
2022-09-17T15:07:48.431Z,1.13
2022-09-17T15:10:21.849Z,0.38
2022-09-17T15:12:50.284Z,0.82
2022-09-17T15:15:21.590Z,0.73
2022-09-17T15:17:50.332Z,1.20
2022-09-17T15:20:28.667Z,0.50
2022-09-17T15:23:09.212Z,0.90
2022-09-17T15:25:37.878Z,0.77
2022-09-17T15:28:17.886Z,0.50
2022-09-17T15:30:46.560Z,0.40
2022-09-17T15:33:13.758Z,0.50
2022-09-17T15:35:41.089Z,0.63
2022-09-17T15:38:23.577Z,0.70
2022-09-17T15:40:51.627Z,0.40
2022-09-17T15:43:30.042Z,0.55
2022-09-17T15:46:00.706Z,0.73
2022-09-17T15:48:37.051Z,0.70
2022-09-17T15:51:07.070Z,0.65
2022-09-17T15:53:35.552Z,0.50
2022-09-17T15:56:17.270Z,0.43
2022-09-17T15:58:47.114Z,0.60
2022-09-17T16:01:16.676Z,0.63
2022-09-17T16:03:43.607Z,0.40
2022-09-17T16:06:22.214Z,1.42
2022-09-17T16:08:58.091Z,1.67
2022-09-17T16:11:33.912Z,2.00
2022-09-17T16:14:01.376Z,0.80
2022-09-17T16:16:36.106Z,0.80
2022-09-17T16:19:04.749Z,0.47
2022-09-17T16:21:32.100Z,0.60
2022-09-17T16:23:59.292Z,1.00
2022-09-17T16:26:30.447Z,0.50
2022-09-17T16:29:04.509Z,0.50
2022-09-17T16:33:58.452Z,0.70
2022-09-17T16:36:25.315Z,0.60
2022-09-17T16:38:51.973Z,0.50
2022-09-17T16:41:18.827Z,0.75
2022-09-17T16:43:45.446Z,0.40
2022-09-17T16:46:12.309Z,0.70
2022-09-17T16:48:41.028Z,0.50
2022-09-17T16:51:09.223Z,0.40
2022-09-17T16:53:36.178Z,0.30
2022-09-17T16:56:07.309Z,0.52
2022-09-17T16:58:34.903Z,0.45
2022-09-17T17:01:13.517Z,0.60
2022-09-17T17:03:41.022Z,0.60
2022-09-17T17:06:16.170Z,0.40
2022-09-17T17:08:42.852Z,0.45
2022-09-17T17:11:09.704Z,0.40
2022-09-17T17:13:36.411Z,0.63
2022-09-17T17:16:08.301Z,0.20
2022-09-17T17:18:35.051Z,0.68
2022-09-17T17:21:06.812Z,0.10
2022-09-17T17:23:34.232Z,0.65
2022-09-17T17:26:01.151Z,0.52
2022-09-17T17:28:30.741Z,0.38
2022-09-17T17:30:57.434Z,0.25
2022-09-17T17:33:24.234Z,0.22
2022-09-17T17:35:50.929Z,0.80
2022-09-17T17:38:18.657Z,0.80
2022-09-17T17:40:45.511Z,0.40
2022-09-17T17:43:13.008Z,0.75
2022-09-17T17:45:40.243Z,0.77
2022-09-17T17:48:07.086Z,0.93
2022-09-17T17:50:34.104Z,0.57
2022-09-17T17:53:00.810Z,0.43
2022-09-17T17:55:27.439Z,0.40
2022-09-17T17:58:01.326Z,0.20
2022-09-17T18:00:28.676Z,0.20
2022-09-17T18:02:55.399Z,0.47
2022-09-17T18:05:22.134Z,0.47
2022-09-17T18:07:49.647Z,0.10
2022-09-17T18:10:16.829Z,0.28
2022-09-17T18:12:50.395Z,0.32
2022-09-17T18:15:17.354Z,0.10
2022-09-17T18:17:44.045Z,0.05
2022-09-17T18:20:11.007Z,0.43
2022-09-17T18:22:37.639Z,0.68
2022-09-17T18:25:04.703Z,0.40
2022-09-17T18:27:31.488Z,0.30
2022-09-17T18:29:58.223Z,0.40
2022-09-17T18:32:25.090Z,0.30
2022-09-17T18:34:51.814Z,1.05
2022-09-17T18:37:18.565Z,0.30
2022-09-17T18:39:57.920Z,0.43
2022-09-17T18:42:25.729Z,0.50
2022-09-17T18:44:52.565Z,0.80
2022-09-17T18:47:19.200Z,0.10
2022-09-17T18:49:45.841Z,0.15
2022-09-17T18:52:12.548Z,0.30
2022-09-17T18:54:39.210Z,0.50
2022-09-17T18:57:06.494Z,0.35
2022-09-17T18:59:33.256Z,0.82
2022-09-17T19:01:59.992Z,0.10
2022-09-17T19:04:28.586Z,0.30
2022-09-17T19:06:55.946Z,0.13
2022-09-17T19:09:22.578Z,0.22
2022-09-17T19:11:49.468Z,0.17
2022-09-17T19:14:16.172Z,0.40
2022-09-17T19:16:42.847Z,0.20
2022-09-17T19:19:09.949Z,0.47
2022-09-17T19:21:36.631Z,0.47
2022-09-17T19:24:03.663Z,0.63
2022-09-17T19:26:30.649Z,0.50
2022-09-17T19:29:00.189Z,0.30
2022-09-17T19:31:27.589Z,0.30
2022-09-17T19:33:55.436Z,0.52
2022-09-17T19:36:22.349Z,0.75
2022-09-17T19:38:49.573Z,0.50
2022-09-17T19:41:18.910Z,0.38
2022-09-17T19:43:46.722Z,0.40
2022-09-17T19:46:16.437Z,0.43
2022-09-17T19:48:48.180Z,0.40
2022-09-17T19:51:15.988Z,0.55
2022-09-17T19:53:43.005Z,0.47
2022-09-17T19:56:21.546Z,0.25
2022-09-17T19:58:48.443Z,0.50
2022-09-17T20:01:15.927Z,0.40
2022-09-17T20:03:44.493Z,0.90
2022-09-17T20:06:13.747Z,0.47
2022-09-17T20:08:48.422Z,0.52
2022-09-17T20:11:17.334Z,0.25
2022-09-17T20:13:44.480Z,0.10
2022-09-17T20:16:15.031Z,0.13
2022-09-17T20:18:43.793Z,0.40
2022-09-17T20:21:18.685Z,0.20
2022-09-17T20:23:45.455Z,0.50
2022-09-17T20:26:12.983Z,0.60
2022-09-17T20:28:40.145Z,0.52
2022-09-17T20:31:16.070Z,0.32
2022-09-17T20:33:43.474Z,0.40
2022-09-17T20:36:15.584Z,0.35
2022-09-17T20:39:11.541Z,0.20
2022-09-17T20:41:31.546Z,0.68
2022-09-17T20:43:58.677Z,0.50
2022-09-17T20:46:28.919Z,0.47
2022-09-17T20:48:57.673Z,0.45
2022-09-17T20:51:26.847Z,0.70
2022-09-17T20:53:53.797Z,0.45
2022-09-17T20:56:22.917Z,0.60
2022-09-17T20:59:03.773Z,0.47
2022-09-17T21:01:36.823Z,0.30
2022-09-17T21:04:06.181Z,0.38
2022-09-17T21:06:35.943Z,0.40
2022-09-17T21:09:03.899Z,1.00
2022-09-17T21:11:33.785Z,0.25
2022-09-17T21:14:00.913Z,0.47
2022-09-17T21:16:28.633Z,0.90
2022-09-17T21:19:01.605Z,0.30
2022-09-17T21:21:29.648Z,0.37
2022-09-17T21:24:03.881Z,0.65
2022-09-17T21:26:31.584Z,0.82
2022-09-17T21:28:58.330Z,0.73
2022-09-17T21:31:33.573Z,0.85
2022-09-17T21:34:07.100Z,1.10
2022-09-17T21:36:36.923Z,0.35
2022-09-17T21:39:16.119Z,0.60
2022-09-17T21:41:44.590Z,0.52
2022-09-17T21:44:12.582Z,0.93
2022-09-17T21:46:40.736Z,1.05
2022-09-17T21:49:07.970Z,1.02
2022-09-17T21:51:37.371Z,0.95
2022-09-17T21:54:07.074Z,0.93
2022-09-17T21:56:34.695Z,0.80
2022-09-17T21:59:04.238Z,0.60
2022-09-17T22:01:40.401Z,1.27
2022-09-17T22:04:10.214Z,1.23
2022-09-17T22:06:37.999Z,0.60
2022-09-17T22:09:06.128Z,0.93
2022-09-17T22:11:35.061Z,0.80
2022-09-17T22:14:13.839Z,0.52
2022-09-17T22:16:43.545Z,1.20
2022-09-17T22:19:12.779Z,0.95
2022-09-17T22:21:44.758Z,0.73
2022-09-17T22:24:12.034Z,0.80
2022-09-17T22:26:43.426Z,1.08
2022-09-17T22:29:19.534Z,0.75
2022-09-17T22:31:47.427Z,0.98
2022-09-17T22:34:17.663Z,1.33
2022-09-17T22:36:44.966Z,1.35
2022-09-17T22:39:12.055Z,0.80
2022-09-17T22:41:45.361Z,0.80
2022-09-17T22:44:17.838Z,0.82
2022-09-17T22:46:48.469Z,1.50
2022-09-17T22:49:15.297Z,0.40
2022-09-17T22:51:42.863Z,1.48
2022-09-17T22:54:11.973Z,1.00
2022-09-17T22:56:38.887Z,0.90
2022-09-17T22:59:05.708Z,0.50
2022-09-17T23:01:36.176Z,1.13
2022-09-17T23:04:04.379Z,1.45
2022-09-17T23:06:33.881Z,0.75
2022-09-17T23:09:00.975Z,1.35
2022-09-17T23:11:30.576Z,1.30
2022-09-17T23:14:04.035Z,0.98
2022-09-17T23:16:39.691Z,0.95
2022-09-17T23:19:06.644Z,0.60
2022-09-17T23:21:33.574Z,0.95
2022-09-17T23:24:00.285Z,0.98
2022-09-17T23:26:28.548Z,0.73
2022-09-17T23:28:55.266Z,1.48
2022-09-17T23:31:27.488Z,0.90
2022-09-17T23:33:55.714Z,1.00
2022-09-17T23:36:28.467Z,1.48
2022-09-17T23:38:56.322Z,1.02
2022-09-17T23:41:24.442Z,0.60
2022-09-17T23:43:53.541Z,0.35
2022-09-17T23:46:21.837Z,1.17
2022-09-17T23:48:49.635Z,0.90
2022-09-17T23:51:16.595Z,0.77
2022-09-17T23:53:44.197Z,1.08
2022-09-17T23:56:14.016Z,0.65
2022-09-17T23:58:41.026Z,1.02
